sensor_id;sensor_type;location;lat;lon;timestamp;P1;durP1;ratioP1;P2;durP2;ratioP2
13588;SDS011;6865;52.552;13.434;2022-07-23T00:00:09;7.38;;;6.60;;
13588;SDS011;6865;52.552;13.434;2022-07-23T00:02:36;7.75;;;6.32;;
13588;SDS011;6865;52.552;13.434;2022-07-23T00:05:03;10.55;;;7.00;;
13588;SDS011;6865;52.552;13.434;2022-07-23T00:07:30;7.35;;;6.40;;
13588;SDS011;6865;52.552;13.434;2022-07-23T00:09:57;7.00;;;6.30;;
13588;SDS011;6865;52.552;13.434;2022-07-23T00:12:24;9.90;;;6.13;;
13588;SDS011;6865;52.552;13.434;2022-07-23T00:14:51;8.70;;;6.45;;
13588;SDS011;6865;52.552;13.434;2022-07-23T00:17:17;7.97;;;6.50;;
13588;SDS011;6865;52.552;13.434;2022-07-23T00:19:44;7.70;;;6.03;;
13588;SDS011;6865;52.552;13.434;2022-07-23T00:22:11;9.50;;;6.20;;
13588;SDS011;6865;52.552;13.434;2022-07-23T00:24:38;7.70;;;6.50;;
13588;SDS011;6865;52.552;13.434;2022-07-23T00:27:04;7.03;;;6.32;;
13588;SDS011;6865;52.552;13.434;2022-07-23T00:29:31;8.38;;;6.65;;
13588;SDS011;6865;52.552;13.434;2022-07-23T00:31:58;8.35;;;6.40;;
13588;SDS011;6865;52.552;13.434;2022-07-23T00:34:24;6.63;;;5.70;;
13588;SDS011;6865;52.552;13.434;2022-07-23T00:36:51;8.35;;;6.55;;
13588;SDS011;6865;52.552;13.434;2022-07-23T00:39:20;8.07;;;6.35;;
13588;SDS011;6865;52.552;13.434;2022-07-23T00:41:50;7.82;;;6.60;;
13588;SDS011;6865;52.552;13.434;2022-07-23T00:44:21;8.30;;;6.30;;
13588;SDS011;6865;52.552;13.434;2022-07-23T00:46:51;7.95;;;6.57;;
13588;SDS011;6865;52.552;13.434;2022-07-23T00:49:20;7.90;;;6.10;;
13588;SDS011;6865;52.552;13.434;2022-07-23T00:51:48;7.18;;;6.20;;
13588;SDS011;6865;52.552;13.434;2022-07-23T00:54:15;8.35;;;6.65;;
13588;SDS011;6865;52.552;13.434;2022-07-23T00:56:43;8.65;;;6.40;;
13588;SDS011;6865;52.552;13.434;2022-07-23T00:59:11;9.70;;;6.55;;
13588;SDS011;6865;52.552;13.434;2022-07-23T01:01:38;8.10;;;6.15;;
13588;SDS011;6865;52.552;13.434;2022-07-23T01:04:06;10.40;;;6.65;;
13588;SDS011;6865;52.552;13.434;2022-07-23T01:06:34;10.48;;;6.20;;
13588;SDS011;6865;52.552;13.434;2022-07-23T01:09:03;8.00;;;5.82;;
13588;SDS011;6865;52.552;13.434;2022-07-23T01:11:33;12.10;;;5.82;;
13588;SDS011;6865;52.552;13.434;2022-07-23T01:14:08;8.05;;;6.00;;
13588;SDS011;6865;52.552;13.434;2022-07-23T01:16:39;9.60;;;6.78;;
13588;SDS011;6865;52.552;13.434;2022-07-23T01:19:08;8.30;;;6.70;;
13588;SDS011;6865;52.552;13.434;2022-07-23T01:21:38;14.32;;;6.72;;
13588;SDS011;6865;52.552;13.434;2022-07-23T01:24:07;8.70;;;6.93;;
13588;SDS011;6865;52.552;13.434;2022-07-23T01:26:35;8.88;;;7.18;;
13588;SDS011;6865;52.552;13.434;2022-07-23T01:29:03;9.07;;;6.75;;
13588;SDS011;6865;52.552;13.434;2022-07-23T01:31:30;7.20;;;6.35;;
13588;SDS011;6865;52.552;13.434;2022-07-23T01:33:58;13.57;;;7.05;;
13588;SDS011;6865;52.552;13.434;2022-07-23T01:36:25;9.18;;;6.85;;
13588;SDS011;6865;52.552;13.434;2022-07-23T01:38:52;8.77;;;6.72;;
13588;SDS011;6865;52.552;13.434;2022-07-23T01:41:19;6.80;;;6.10;;
13588;SDS011;6865;52.552;13.434;2022-07-23T01:43:46;7.70;;;6.68;;
13588;SDS011;6865;52.552;13.434;2022-07-23T01:46:13;8.55;;;6.53;;
13588;SDS011;6865;52.552;13.434;2022-07-23T01:48:42;7.93;;;6.28;;
13588;SDS011;6865;52.552;13.434;2022-07-23T01:51:09;8.02;;;6.60;;
13588;SDS011;6865;52.552;13.434;2022-07-23T02:06:14;7.70;;;6.88;;
13588;SDS011;6865;52.552;13.434;2022-07-23T02:08:40;7.30;;;6.57;;
13588;SDS011;6865;52.552;13.434;2022-07-23T02:11:07;8.45;;;6.68;;
13588;SDS011;6865;52.552;13.434;2022-07-23T02:13:34;9.82;;;6.90;;
13588;SDS011;6865;52.552;13.434;2022-07-23T02:16:01;10.75;;;6.30;;
13588;SDS011;6865;52.552;13.434;2022-07-23T02:18:27;8.20;;;5.90;;
13588;SDS011;6865;52.552;13.434;2022-07-23T02:20:54;7.72;;;6.68;;
13588;SDS011;6865;52.552;13.434;2022-07-23T02:23:21;9.35;;;6.50;;
13588;SDS011;6865;52.552;13.434;2022-07-23T02:25:47;9.10;;;6.07;;
13588;SDS011;6865;52.552;13.434;2022-07-23T02:28:14;8.23;;;6.72;;
13588;SDS011;6865;52.552;13.434;2022-07-23T02:30:41;7.20;;;6.07;;
13588;SDS011;6865;52.552;13.434;2022-07-23T02:33:08;8.00;;;6.68;;
13588;SDS011;6865;52.552;13.434;2022-07-23T02:35:34;9.87;;;7.00;;
13588;SDS011;6865;52.552;13.434;2022-07-23T02:38:01;9.05;;;6.65;;
13588;SDS011;6865;52.552;13.434;2022-07-23T02:40:28;10.10;;;6.93;;
13588;SDS011;6865;52.552;13.434;2022-07-23T02:42:54;10.15;;;6.85;;
13588;SDS011;6865;52.552;13.434;2022-07-23T02:45:21;9.85;;;7.05;;
13588;SDS011;6865;52.552;13.434;2022-07-23T02:47:48;7.60;;;6.35;;
13588;SDS011;6865;52.552;13.434;2022-07-23T02:50:14;9.00;;;6.55;;
13588;SDS011;6865;52.552;13.434;2022-07-23T02:52:41;8.88;;;6.75;;
13588;SDS011;6865;52.552;13.434;2022-07-23T02:55:08;7.82;;;6.35;;
13588;SDS011;6865;52.552;13.434;2022-07-23T02:57:34;7.40;;;6.60;;
13588;SDS011;6865;52.552;13.434;2022-07-23T03:00:01;9.38;;;6.80;;
13588;SDS011;6865;52.552;13.434;2022-07-23T03:02:29;9.27;;;6.70;;
13588;SDS011;6865;52.552;13.434;2022-07-23T03:04:55;9.37;;;6.57;;
13588;SDS011;6865;52.552;13.434;2022-07-23T03:07:22;7.20;;;6.10;;
13588;SDS011;6865;52.552;13.434;2022-07-23T03:09:49;9.20;;;6.93;;
13588;SDS011;6865;52.552;13.434;2022-07-23T03:12:15;9.97;;;6.53;;
13588;SDS011;6865;52.552;13.434;2022-07-23T03:14:42;6.83;;;6.03;;
13588;SDS011;6865;52.552;13.434;2022-07-23T03:17:09;10.43;;;6.27;;
13588;SDS011;6865;52.552;13.434;2022-07-23T03:19:36;9.00;;;5.60;;
13588;SDS011;6865;52.552;13.434;2022-07-23T03:22:04;9.47;;;6.03;;
13588;SDS011;6865;52.552;13.434;2022-07-23T03:24:31;7.60;;;5.73;;
13588;SDS011;6865;52.552;13.434;2022-07-23T03:27:16;9.23;;;6.10;;
13588;SDS011;6865;52.552;13.434;2022-07-23T03:29:43;11.07;;;5.53;;
13588;SDS011;6865;52.552;13.434;2022-07-23T03:32:09;7.07;;;6.00;;
13588;SDS011;6865;52.552;13.434;2022-07-23T03:34:36;7.80;;;5.63;;
13588;SDS011;6865;52.552;13.434;2022-07-23T03:37:05;9.07;;;5.90;;
13588;SDS011;6865;52.552;13.434;2022-07-23T03:39:32;9.30;;;6.07;;
13588;SDS011;6865;52.552;13.434;2022-07-23T03:42:00;9.57;;;5.77;;
13588;SDS011;6865;52.552;13.434;2022-07-23T03:44:27;7.33;;;5.97;;
13588;SDS011;6865;52.552;13.434;2022-07-23T03:46:55;8.03;;;5.60;;
13588;SDS011;6865;52.552;13.434;2022-07-23T03:49:25;9.90;;;5.83;;
13588;SDS011;6865;52.552;13.434;2022-07-23T03:51:52;8.87;;;5.27;;
13588;SDS011;6865;52.552;13.434;2022-07-23T03:54:19;7.38;;;5.28;;
13588;SDS011;6865;52.552;13.434;2022-07-23T03:56:47;8.80;;;5.83;;
13588;SDS011;6865;52.552;13.434;2022-07-23T03:59:14;6.60;;;4.90;;
13588;SDS011;6865;52.552;13.434;2022-07-23T04:01:49;9.27;;;4.80;;
13588;SDS011;6865;52.552;13.434;2022-07-23T04:04:18;9.40;;;5.20;;
13588;SDS011;6865;52.552;13.434;2022-07-23T04:06:50;7.40;;;4.57;;
13588;SDS011;6865;52.552;13.434;2022-07-23T04:09:18;10.00;;;4.20;;
13588;SDS011;6865;52.552;13.434;2022-07-23T04:11:46;7.17;;;4.57;;
13588;SDS011;6865;52.552;13.434;2022-07-23T04:14:13;7.53;;;4.63;;
13588;SDS011;6865;52.552;13.434;2022-07-23T04:16:40;8.57;;;4.30;;
13588;SDS011;6865;52.552;13.434;2022-07-23T04:19:07;5.20;;;3.80;;
13588;SDS011;6865;52.552;13.434;2022-07-23T04:21:34;5.80;;;4.10;;
13588;SDS011;6865;52.552;13.434;2022-07-23T04:24:01;6.67;;;3.70;;
13588;SDS011;6865;52.552;13.434;2022-07-23T04:26:28;6.27;;;3.70;;
13588;SDS011;6865;52.552;13.434;2022-07-23T04:28:55;5.77;;;3.17;;
13588;SDS011;6865;52.552;13.434;2022-07-23T04:31:21;6.10;;;3.30;;
13588;SDS011;6865;52.552;13.434;2022-07-23T04:33:48;7.27;;;3.53;;
13588;SDS011;6865;52.552;13.434;2022-07-23T04:36:15;6.93;;;3.40;;
13588;SDS011;6865;52.552;13.434;2022-07-23T04:38:42;4.17;;;3.20;;
13588;SDS011;6865;52.552;13.434;2022-07-23T04:41:08;6.83;;;3.57;;
13588;SDS011;6865;52.552;13.434;2022-07-23T04:43:35;7.60;;;3.90;;
13588;SDS011;6865;52.552;13.434;2022-07-23T04:46:01;7.43;;;3.30;;
13588;SDS011;6865;52.552;13.434;2022-07-23T04:48:28;12.00;;;5.00;;
13588;SDS011;6865;52.552;13.434;2022-07-23T04:50:55;6.80;;;4.07;;
13588;SDS011;6865;52.552;13.434;2022-07-23T04:53:22;6.90;;;3.73;;
13588;SDS011;6865;52.552;13.434;2022-07-23T04:55:48;6.07;;;3.53;;
13588;SDS011;6865;52.552;13.434;2022-07-23T04:58:15;9.20;;;4.07;;
13588;SDS011;6865;52.552;13.434;2022-07-23T05:00:42;9.60;;;3.90;;
13588;SDS011;6865;52.552;13.434;2022-07-23T05:03:08;8.10;;;3.80;;
13588;SDS011;6865;52.552;13.434;2022-07-23T05:05:35;7.47;;;3.90;;
13588;SDS011;6865;52.552;13.434;2022-07-23T05:08:02;7.37;;;3.80;;
13588;SDS011;6865;52.552;13.434;2022-07-23T05:10:29;10.80;;;3.97;;
13588;SDS011;6865;52.552;13.434;2022-07-23T05:12:55;8.30;;;3.80;;
13588;SDS011;6865;52.552;13.434;2022-07-23T05:15:22;9.00;;;3.57;;
13588;SDS011;6865;52.552;13.434;2022-07-23T05:17:49;6.73;;;3.23;;
13588;SDS011;6865;52.552;13.434;2022-07-23T05:20:16;5.13;;;3.73;;
13588;SDS011;6865;52.552;13.434;2022-07-23T05:22:43;6.77;;;3.50;;
13588;SDS011;6865;52.552;13.434;2022-07-23T05:25:09;5.77;;;3.30;;
13588;SDS011;6865;52.552;13.434;2022-07-23T05:27:36;4.83;;;3.30;;
13588;SDS011;6865;52.552;13.434;2022-07-23T05:30:03;6.13;;;3.87;;
13588;SDS011;6865;52.552;13.434;2022-07-23T05:32:31;5.50;;;3.80;;
13588;SDS011;6865;52.552;13.434;2022-07-23T05:34:58;6.27;;;3.60;;
13588;SDS011;6865;52.552;13.434;2022-07-23T05:37:25;7.30;;;3.97;;
13588;SDS011;6865;52.552;13.434;2022-07-23T05:39:52;10.07;;;3.97;;
13588;SDS011;6865;52.552;13.434;2022-07-23T05:42:18;7.20;;;4.47;;
13588;SDS011;6865;52.552;13.434;2022-07-23T05:44:45;5.57;;;4.33;;
13588;SDS011;6865;52.552;13.434;2022-07-23T05:47:12;7.07;;;4.03;;
13588;SDS011;6865;52.552;13.434;2022-07-23T05:49:38;7.05;;;4.25;;
13588;SDS011;6865;52.552;13.434;2022-07-23T05:52:05;6.20;;;3.93;;
13588;SDS011;6865;52.552;13.434;2022-07-23T05:54:35;6.57;;;3.67;;
13588;SDS011;6865;52.552;13.434;2022-07-23T05:57:02;5.43;;;4.00;;
13588;SDS011;6865;52.552;13.434;2022-07-23T05:59:30;4.63;;;4.03;;
13588;SDS011;6865;52.552;13.434;2022-07-23T06:01:56;10.03;;;4.20;;
13588;SDS011;6865;52.552;13.434;2022-07-23T06:04:23;8.00;;;4.20;;
13588;SDS011;6865;52.552;13.434;2022-07-23T06:06:50;8.00;;;4.40;;
13588;SDS011;6865;52.552;13.434;2022-07-23T06:09:16;7.47;;;4.37;;
13588;SDS011;6865;52.552;13.434;2022-07-23T06:11:43;10.47;;;4.67;;
13588;SDS011;6865;52.552;13.434;2022-07-23T06:14:10;9.67;;;4.70;;
13588;SDS011;6865;52.552;13.434;2022-07-23T06:16:36;7.70;;;4.20;;
13588;SDS011;6865;52.552;13.434;2022-07-23T06:19:03;5.80;;;3.80;;
13588;SDS011;6865;52.552;13.434;2022-07-23T06:21:30;6.97;;;4.20;;
13588;SDS011;6865;52.552;13.434;2022-07-23T06:24:13;9.93;;;4.67;;
13588;SDS011;6865;52.552;13.434;2022-07-23T06:26:40;10.40;;;4.63;;
13588;SDS011;6865;52.552;13.434;2022-07-23T06:29:07;14.27;;;4.73;;
13588;SDS011;6865;52.552;13.434;2022-07-23T06:31:34;7.70;;;4.38;;
13588;SDS011;6865;52.552;13.434;2022-07-23T06:34:01;8.60;;;4.40;;
13588;SDS011;6865;52.552;13.434;2022-07-23T06:36:27;7.20;;;4.10;;
13588;SDS011;6865;52.552;13.434;2022-07-23T06:38:54;7.67;;;4.10;;
13588;SDS011;6865;52.552;13.434;2022-07-23T06:41:21;10.88;;;4.32;;
13588;SDS011;6865;52.552;13.434;2022-07-23T06:43:48;6.88;;;4.20;;
13588;SDS011;6865;52.552;13.434;2022-07-23T06:46:15;8.40;;;5.23;;
13588;SDS011;6865;52.552;13.434;2022-07-23T06:48:42;7.70;;;4.80;;
13588;SDS011;6865;52.552;13.434;2022-07-23T06:51:09;8.50;;;5.00;;
13588;SDS011;6865;52.552;13.434;2022-07-23T06:53:36;5.73;;;4.53;;
13588;SDS011;6865;52.552;13.434;2022-07-23T06:56:02;10.73;;;4.72;;
13588;SDS011;6865;52.552;13.434;2022-07-23T06:58:29;8.93;;;4.53;;
13588;SDS011;6865;52.552;13.434;2022-07-23T07:00:56;7.22;;;4.47;;
13588;SDS011;6865;52.552;13.434;2022-07-23T07:03:23;6.05;;;4.25;;
13588;SDS011;6865;52.552;13.434;2022-07-23T07:05:49;7.47;;;4.70;;
13588;SDS011;6865;52.552;13.434;2022-07-23T07:08:16;9.18;;;4.70;;
13588;SDS011;6865;52.552;13.434;2022-07-23T07:10:43;7.97;;;4.60;;
13588;SDS011;6865;52.552;13.434;2022-07-23T07:13:09;10.03;;;5.00;;
13588;SDS011;6865;52.552;13.434;2022-07-23T07:15:36;5.53;;;4.13;;
13588;SDS011;6865;52.552;13.434;2022-07-23T07:18:03;8.53;;;4.80;;
13588;SDS011;6865;52.552;13.434;2022-07-23T07:20:29;8.37;;;5.03;;
13588;SDS011;6865;52.552;13.434;2022-07-23T07:22:56;8.47;;;4.70;;
13588;SDS011;6865;52.552;13.434;2022-07-23T07:25:22;6.10;;;4.70;;
13588;SDS011;6865;52.552;13.434;2022-07-23T07:27:49;5.38;;;3.75;;
13588;SDS011;6865;52.552;13.434;2022-07-23T07:30:16;8.32;;;4.25;;
13588;SDS011;6865;52.552;13.434;2022-07-23T07:32:43;6.65;;;4.35;;
13588;SDS011;6865;52.552;13.434;2022-07-23T07:35:25;6.68;;;4.50;;
13588;SDS011;6865;52.552;13.434;2022-07-23T07:37:51;5.30;;;4.18;;
13588;SDS011;6865;52.552;13.434;2022-07-23T07:40:18;10.52;;;4.32;;
13588;SDS011;6865;52.552;13.434;2022-07-23T07:42:48;5.53;;;4.00;;
13588;SDS011;6865;52.552;13.434;2022-07-23T07:45:16;8.07;;;4.07;;
13588;SDS011;6865;52.552;13.434;2022-07-23T07:47:45;8.65;;;4.85;;
13588;SDS011;6865;52.552;13.434;2022-07-23T07:50:12;6.47;;;4.30;;
13588;SDS011;6865;52.552;13.434;2022-07-23T07:52:39;7.03;;;4.07;;
13588;SDS011;6865;52.552;13.434;2022-07-23T07:55:07;8.50;;;4.55;;
13588;SDS011;6865;52.552;13.434;2022-07-23T07:57:35;8.73;;;5.00;;
13588;SDS011;6865;52.552;13.434;2022-07-23T08:00:03;6.50;;;4.80;;
13588;SDS011;6865;52.552;13.434;2022-07-23T08:02:45;6.75;;;4.68;;
13588;SDS011;6865;52.552;13.434;2022-07-23T08:05:20;6.68;;;4.75;;
13588;SDS011;6865;52.552;13.434;2022-07-23T08:07:53;10.27;;;5.57;;
13588;SDS011;6865;52.552;13.434;2022-07-23T08:10:21;7.03;;;4.28;;
13588;SDS011;6865;52.552;13.434;2022-07-23T08:12:49;7.45;;;4.40;;
13588;SDS011;6865;52.552;13.434;2022-07-23T08:15:19;7.28;;;4.10;;
13588;SDS011;6865;52.552;13.434;2022-07-23T08:17:47;6.28;;;4.25;;
13588;SDS011;6865;52.552;13.434;2022-07-23T08:20:16;8.90;;;4.50;;
13588;SDS011;6865;52.552;13.434;2022-07-23T08:22:51;5.72;;;4.03;;
13588;SDS011;6865;52.552;13.434;2022-07-23T08:25:21;6.38;;;3.80;;
13588;SDS011;6865;52.552;13.434;2022-07-23T08:27:56;5.53;;;3.00;;
13588;SDS011;6865;52.552;13.434;2022-07-23T08:30:23;6.32;;;3.20;;
13588;SDS011;6865;52.552;13.434;2022-07-23T08:32:58;5.85;;;2.97;;
13588;SDS011;6865;52.552;13.434;2022-07-23T08:35:38;6.38;;;3.20;;
13588;SDS011;6865;52.552;13.434;2022-07-23T08:38:10;5.45;;;2.92;;
13588;SDS011;6865;52.552;13.434;2022-07-23T08:40:39;6.63;;;3.40;;
13588;SDS011;6865;52.552;13.434;2022-07-23T08:43:10;6.30;;;3.60;;
13588;SDS011;6865;52.552;13.434;2022-07-23T08:45:45;7.70;;;3.00;;
13588;SDS011;6865;52.552;13.434;2022-07-23T08:48:15;5.45;;;3.08;;
13588;SDS011;6865;52.552;13.434;2022-07-23T08:50:46;6.70;;;3.45;;
13588;SDS011;6865;52.552;13.434;2022-07-23T08:53:18;5.55;;;3.10;;
13588;SDS011;6865;52.552;13.434;2022-07-23T08:55:46;4.63;;;3.20;;
13588;SDS011;6865;52.552;13.434;2022-07-23T08:58:14;8.93;;;3.63;;
13588;SDS011;6865;52.552;13.434;2022-07-23T09:00:41;8.23;;;3.22;;
13588;SDS011;6865;52.552;13.434;2022-07-23T09:03:42;6.30;;;2.80;;
13588;SDS011;6865;52.552;13.434;2022-07-23T09:06:02;7.93;;;3.15;;
13588;SDS011;6865;52.552;13.434;2022-07-23T09:08:36;5.60;;;3.20;;
13588;SDS011;6865;52.552;13.434;2022-07-23T09:11:07;6.97;;;3.00;;
13588;SDS011;6865;52.552;13.434;2022-07-23T09:13:53;4.53;;;2.72;;
13588;SDS011;6865;52.552;13.434;2022-07-23T09:16:26;6.60;;;3.55;;
13588;SDS011;6865;52.552;13.434;2022-07-23T09:18:57;7.03;;;3.38;;
13588;SDS011;6865;52.552;13.434;2022-07-23T09:21:29;5.32;;;3.03;;
13588;SDS011;6865;52.552;13.434;2022-07-23T09:24:01;5.18;;;3.33;;
13588;SDS011;6865;52.552;13.434;2022-07-23T09:29:03;5.78;;;3.50;;
13588;SDS011;6865;52.552;13.434;2022-07-23T09:34:24;6.82;;;3.78;;
13588;SDS011;6865;52.552;13.434;2022-07-23T09:36:53;6.18;;;3.72;;
13588;SDS011;6865;52.552;13.434;2022-07-23T09:39:25;7.50;;;4.15;;
13588;SDS011;6865;52.552;13.434;2022-07-23T09:41:54;7.75;;;3.60;;
13588;SDS011;6865;52.552;13.434;2022-07-23T09:44:21;5.82;;;3.83;;
13588;SDS011;6865;52.552;13.434;2022-07-23T09:46:57;8.43;;;3.60;;
13588;SDS011;6865;52.552;13.434;2022-07-23T09:49:24;7.40;;;4.25;;
13588;SDS011;6865;52.552;13.434;2022-07-23T09:51:58;6.95;;;4.22;;
13588;SDS011;6865;52.552;13.434;2022-07-23T09:54:28;6.35;;;4.30;;
13588;SDS011;6865;52.552;13.434;2022-07-23T09:57:02;8.50;;;4.38;;
13588;SDS011;6865;52.552;13.434;2022-07-23T09:59:32;7.10;;;4.00;;
13588;SDS011;6865;52.552;13.434;2022-07-23T10:02:01;4.75;;;3.75;;
13588;SDS011;6865;52.552;13.434;2022-07-23T10:04:29;6.43;;;3.55;;
13588;SDS011;6865;52.552;13.434;2022-07-23T10:06:57;8.05;;;4.03;;
13588;SDS011;6865;52.552;13.434;2022-07-23T10:09:32;4.75;;;3.70;;
13588;SDS011;6865;52.552;13.434;2022-07-23T10:12:11;6.43;;;3.75;;
13588;SDS011;6865;52.552;13.434;2022-07-23T10:14:58;7.68;;;4.15;;
13588;SDS011;6865;52.552;13.434;2022-07-23T10:17:30;5.53;;;3.42;;
13588;SDS011;6865;52.552;13.434;2022-07-23T10:19:57;4.32;;;3.50;;
13588;SDS011;6865;52.552;13.434;2022-07-23T10:22:24;7.20;;;3.20;;
13588;SDS011;6865;52.552;13.434;2022-07-23T10:30:51;7.00;;;3.78;;
13588;SDS011;6865;52.552;13.434;2022-07-23T10:36:57;5.13;;;3.72;;
13588;SDS011;6865;52.552;13.434;2022-07-23T10:39:33;5.93;;;3.20;;
13588;SDS011;6865;52.552;13.434;2022-07-23T10:42:16;4.35;;;3.20;;
13588;SDS011;6865;52.552;13.434;2022-07-23T10:44:44;7.32;;;3.40;;
13588;SDS011;6865;52.552;13.434;2022-07-23T10:47:21;9.40;;;3.90;;
13588;SDS011;6865;52.552;13.434;2022-07-23T10:50:19;5.30;;;3.42;;
13588;SDS011;6865;52.552;13.434;2022-07-23T10:58:00;5.25;;;3.40;;
13588;SDS011;6865;52.552;13.434;2022-07-23T11:00:29;4.07;;;3.20;;
13588;SDS011;6865;52.552;13.434;2022-07-23T11:03:01;7.32;;;4.43;;
13588;SDS011;6865;52.552;13.434;2022-07-23T11:05:42;3.92;;;2.95;;
13588;SDS011;6865;52.552;13.434;2022-07-23T11:08:11;5.47;;;3.28;;
13588;SDS011;6865;52.552;13.434;2022-07-23T11:10:49;5.82;;;3.30;;
13588;SDS011;6865;52.552;13.434;2022-07-23T11:13:26;6.03;;;3.65;;
13588;SDS011;6865;52.552;13.434;2022-07-23T11:31:55;6.25;;;3.15;;
13588;SDS011;6865;52.552;13.434;2022-07-23T11:34:43;5.97;;;3.30;;
13588;SDS011;6865;52.552;13.434;2022-07-23T11:37:26;5.82;;;3.30;;
13588;SDS011;6865;52.552;13.434;2022-07-23T11:39:55;5.22;;;3.40;;
13588;SDS011;6865;52.552;13.434;2022-07-23T11:42:23;6.05;;;3.20;;
13588;SDS011;6865;52.552;13.434;2022-07-23T11:44:56;7.47;;;4.13;;
13588;SDS011;6865;52.552;13.434;2022-07-23T11:47:24;7.43;;;3.40;;
13588;SDS011;6865;52.552;13.434;2022-07-23T11:49:55;6.30;;;3.35;;
13588;SDS011;6865;52.552;13.434;2022-07-23T11:52:23;7.50;;;3.50;;
13588;SDS011;6865;52.552;13.434;2022-07-23T11:54:56;9.38;;;3.60;;
13588;SDS011;6865;52.552;13.434;2022-07-23T11:57:28;4.28;;;3.10;;
13588;SDS011;6865;52.552;13.434;2022-07-23T12:02:37;7.45;;;3.03;;
13588;SDS011;6865;52.552;13.434;2022-07-23T12:05:06;6.15;;;3.38;;
13588;SDS011;6865;52.552;13.434;2022-07-23T12:07:42;6.45;;;3.60;;
13588;SDS011;6865;52.552;13.434;2022-07-23T12:10:56;5.78;;;3.25;;
13588;SDS011;6865;52.552;13.434;2022-07-23T12:13:06;7.80;;;3.63;;
13588;SDS011;6865;52.552;13.434;2022-07-23T12:15:39;5.05;;;3.20;;
13588;SDS011;6865;52.552;13.434;2022-07-23T12:18:10;6.70;;;3.25;;
13588;SDS011;6865;52.552;13.434;2022-07-23T12:20:40;4.95;;;3.20;;
13588;SDS011;6865;52.552;13.434;2022-07-23T12:23:10;6.05;;;3.40;;
13588;SDS011;6865;52.552;13.434;2022-07-23T12:25:46;7.25;;;3.47;;
13588;SDS011;6865;52.552;13.434;2022-07-23T12:28:14;3.72;;;2.97;;
13588;SDS011;6865;52.552;13.434;2022-07-23T12:30:53;4.78;;;3.30;;
13588;SDS011;6865;52.552;13.434;2022-07-23T12:33:39;5.72;;;3.17;;
13588;SDS011;6865;52.552;13.434;2022-07-23T12:36:07;6.40;;;3.90;;
13588;SDS011;6865;52.552;13.434;2022-07-23T12:38:46;6.50;;;3.40;;
13588;SDS011;6865;52.552;13.434;2022-07-23T12:41:15;3.47;;;3.00;;
13588;SDS011;6865;52.552;13.434;2022-07-23T12:43:43;4.13;;;3.05;;
13588;SDS011;6865;52.552;13.434;2022-07-23T12:46:15;5.38;;;3.13;;
13588;SDS011;6865;52.552;13.434;2022-07-23T12:51:21;6.38;;;3.70;;
13588;SDS011;6865;52.552;13.434;2022-07-23T12:56:34;6.63;;;3.72;;
13588;SDS011;6865;52.552;13.434;2022-07-23T13:01:31;4.32;;;3.75;;
13588;SDS011;6865;52.552;13.434;2022-07-23T13:04:09;8.05;;;3.25;;
13588;SDS011;6865;52.552;13.434;2022-07-23T13:06:53;5.10;;;3.10;;
13588;SDS011;6865;52.552;13.434;2022-07-23T13:09:27;4.70;;;3.38;;
13588;SDS011;6865;52.552;13.434;2022-07-23T13:11:59;6.45;;;3.53;;
13588;SDS011;6865;52.552;13.434;2022-07-23T13:14:26;6.03;;;3.30;;
13588;SDS011;6865;52.552;13.434;2022-07-23T13:16:53;4.32;;;3.30;;
13588;SDS011;6865;52.552;13.434;2022-07-23T13:19:41;4.90;;;3.70;;
13588;SDS011;6865;52.552;13.434;2022-07-23T13:22:07;5.28;;;3.30;;
13588;SDS011;6865;52.552;13.434;2022-07-23T13:24:35;4.63;;;3.65;;
13588;SDS011;6865;52.552;13.434;2022-07-23T13:27:04;6.10;;;3.40;;
13588;SDS011;6865;52.552;13.434;2022-07-23T13:29:36;4.80;;;3.42;;
13588;SDS011;6865;52.552;13.434;2022-07-23T13:32:03;6.53;;;3.58;;
13588;SDS011;6865;52.552;13.434;2022-07-23T13:34:36;5.93;;;3.20;;
13588;SDS011;6865;52.552;13.434;2022-07-23T13:37:04;4.35;;;3.03;;
13588;SDS011;6865;52.552;13.434;2022-07-23T13:39:31;8.07;;;3.10;;
13588;SDS011;6865;52.552;13.434;2022-07-23T13:42:03;4.97;;;3.13;;
13588;SDS011;6865;52.552;13.434;2022-07-23T13:44:33;4.93;;;2.78;;
13588;SDS011;6865;52.552;13.434;2022-07-23T13:47:01;4.97;;;3.17;;
13588;SDS011;6865;52.552;13.434;2022-07-23T13:49:28;5.65;;;3.10;;
13588;SDS011;6865;52.552;13.434;2022-07-23T13:51:55;3.80;;;2.72;;
13588;SDS011;6865;52.552;13.434;2022-07-23T13:54:23;4.63;;;2.95;;
13588;SDS011;6865;52.552;13.434;2022-07-23T13:56:49;4.07;;;3.05;;
13588;SDS011;6865;52.552;13.434;2022-07-23T13:59:17;3.35;;;2.55;;
13588;SDS011;6865;52.552;13.434;2022-07-23T14:01:44;4.95;;;3.20;;
13588;SDS011;6865;52.552;13.434;2022-07-23T14:04:31;3.13;;;2.60;;
13588;SDS011;6865;52.552;13.434;2022-07-23T14:06:59;6.75;;;3.25;;
13588;SDS011;6865;52.552;13.434;2022-07-23T14:09:26;4.15;;;2.80;;
13588;SDS011;6865;52.552;13.434;2022-07-23T14:11:53;3.88;;;2.50;;
13588;SDS011;6865;52.552;13.434;2022-07-23T14:14:20;6.63;;;3.00;;
13588;SDS011;6865;52.552;13.434;2022-07-23T14:16:47;3.50;;;2.55;;
13588;SDS011;6865;52.552;13.434;2022-07-23T14:19:14;4.25;;;2.78;;
13588;SDS011;6865;52.552;13.434;2022-07-23T14:21:40;5.72;;;2.80;;
13588;SDS011;6865;52.552;13.434;2022-07-23T14:24:08;3.15;;;2.63;;
13588;SDS011;6865;52.552;13.434;2022-07-23T14:26:35;3.67;;;2.40;;
13588;SDS011;6865;52.552;13.434;2022-07-23T14:29:03;2.58;;;2.30;;
13588;SDS011;6865;52.552;13.434;2022-07-23T14:31:30;3.63;;;2.60;;
13588;SDS011;6865;52.552;13.434;2022-07-23T14:33:57;4.15;;;2.60;;
13588;SDS011;6865;52.552;13.434;2022-07-23T14:36:25;5.40;;;2.40;;
13588;SDS011;6865;52.552;13.434;2022-07-23T14:38:53;2.88;;;2.50;;
13588;SDS011;6865;52.552;13.434;2022-07-23T14:41:22;6.93;;;2.83;;
13588;SDS011;6865;52.552;13.434;2022-07-23T14:43:53;3.53;;;2.40;;
13588;SDS011;6865;52.552;13.434;2022-07-23T14:46:20;5.75;;;2.40;;
13588;SDS011;6865;52.552;13.434;2022-07-23T14:48:46;2.40;;;2.20;;
13588;SDS011;6865;52.552;13.434;2022-07-23T14:51:13;4.88;;;2.50;;
13588;SDS011;6865;52.552;13.434;2022-07-23T14:53:40;3.63;;;2.58;;
13588;SDS011;6865;52.552;13.434;2022-07-23T14:56:06;2.88;;;1.98;;
13588;SDS011;6865;52.552;13.434;2022-07-23T14:58:33;5.47;;;2.50;;
13588;SDS011;6865;52.552;13.434;2022-07-23T15:01:03;2.63;;;2.42;;
13588;SDS011;6865;52.552;13.434;2022-07-23T15:03:29;2.88;;;2.10;;
13588;SDS011;6865;52.552;13.434;2022-07-23T15:06:05;3.42;;;2.20;;
13588;SDS011;6865;52.552;13.434;2022-07-23T15:08:32;2.60;;;1.90;;
13588;SDS011;6865;52.552;13.434;2022-07-23T15:10:59;3.50;;;2.20;;
13588;SDS011;6865;52.552;13.434;2022-07-23T15:13:26;3.28;;;2.15;;
13588;SDS011;6865;52.552;13.434;2022-07-23T15:15:53;2.58;;;2.28;;
13588;SDS011;6865;52.552;13.434;2022-07-23T15:18:22;3.38;;;2.20;;
13588;SDS011;6865;52.552;13.434;2022-07-23T15:20:48;3.53;;;1.90;;
13588;SDS011;6865;52.552;13.434;2022-07-23T15:23:15;2.45;;;1.85;;
13588;SDS011;6865;52.552;13.434;2022-07-23T15:25:42;4.60;;;2.22;;
13588;SDS011;6865;52.552;13.434;2022-07-23T15:28:15;4.57;;;2.50;;
13588;SDS011;6865;52.552;13.434;2022-07-23T15:30:46;4.38;;;2.25;;
13588;SDS011;6865;52.552;13.434;2022-07-23T15:33:13;2.72;;;1.92;;
13588;SDS011;6865;52.552;13.434;2022-07-23T15:35:47;2.95;;;2.00;;
13588;SDS011;6865;52.552;13.434;2022-07-23T15:38:15;3.90;;;2.03;;
13588;SDS011;6865;52.552;13.434;2022-07-23T15:40:48;3.45;;;2.00;;
13588;SDS011;6865;52.552;13.434;2022-07-23T15:43:16;1.77;;;1.63;;
13588;SDS011;6865;52.552;13.434;2022-07-23T15:45:43;2.03;;;1.85;;
13588;SDS011;6865;52.552;13.434;2022-07-23T15:48:10;1.92;;;1.65;;
13588;SDS011;6865;52.552;13.434;2022-07-23T15:50:38;3.08;;;1.90;;
13588;SDS011;6865;52.552;13.434;2022-07-23T15:53:11;2.55;;;1.90;;
13588;SDS011;6865;52.552;13.434;2022-07-23T15:55:41;2.45;;;1.80;;
13588;SDS011;6865;52.552;13.434;2022-07-23T15:58:11;4.05;;;2.00;;